Time;durP1;ratioP1;P1;durP2;ratioP2;P2;SDS_P1;SDS_P2;PMS_P1;PMS_P2;Temp;Humidity;BMP_temperature;BMP_pressure;BME280_temperature;BME280_humidity;BME280_pressure;Samples;Min_cycle;Max_cycle;Signal;HPM_P1;HPM_P2
2022/09/16 00:00:26;;;;;;;2.90;0.90;;;;;;;15.48;58.59;99101.34;5135144;27;20143;-63
2022/09/16 00:02:53;;;;;;;3.03;0.80;;;;;;;15.47;58.76;99094.34;5134978;27;20568;-63
2022/09/16 00:05:20;;;;;;;3.08;0.80;;;;;;;15.46;58.55;99094.50;5134949;27;20074;-62
2022/09/16 00:07:47;;;;;;;2.63;0.70;;;;;;;15.45;58.58;99090.16;5134913;27;20051;-62
2022/09/16 00:10:14;;;;;;;3.53;0.80;;;;;;;15.43;58.59;99085.00;5134419;27;20109;-63
2022/09/16 00:12:40;;;;;;;3.78;0.70;;;;;;;15.41;58.48;99086.97;5134805;27;20083;-61
2022/09/16 00:15:08;;;;;;;4.55;0.88;;;;;;;15.39;58.33;99078.28;5134724;27;20074;-62
2022/09/16 00:17:34;;;;;;;3.60;0.93;;;;;;;15.36;58.33;99087.34;5134635;27;20142;-62
2022/09/16 00:20:01;;;;;;;2.10;0.60;;;;;;;15.34;58.32;99085.81;5134313;27;20138;-61
2022/09/16 00:22:28;;;;;;;0.98;0.57;;;;;;;15.30;58.32;99089.72;5134459;27;20138;-63
2022/09/16 00:24:54;;;;;;;3.05;0.70;;;;;;;15.25;58.53;99087.44;5134425;27;20141;-61
2022/09/16 00:27:21;;;;;;;3.40;0.90;;;;;;;15.21;58.49;99091.34;5134618;27;20126;-62
2022/09/16 00:29:47;;;;;;;2.00;0.73;;;;;;;15.19;58.47;99093.31;5134317;27;20162;-61
2022/09/16 00:32:14;;;;;;;1.73;0.40;;;;;;;15.14;58.53;99093.69;5134391;27;20086;-64
2022/09/16 00:34:41;;;;;;;1.35;0.57;;;;;;;15.12;58.81;99090.34;5134252;27;20180;-62
2022/09/16 00:37:08;;;;;;;5.75;1.13;;;;;;;15.07;58.76;99092.56;5134246;27;20493;-61
2022/09/16 00:39:36;;;;;;;2.33;0.95;;;;;;;15.04;58.81;99092.81;5132846;27;20104;-62
2022/09/16 00:42:03;;;;;;;5.25;0.80;;;;;;;15.02;58.89;99100.91;5134170;27;20092;-61
2022/09/16 00:45:12;;;;;;;1.40;0.63;;;;;;;14.94;59.82;99100.72;5133190;27;20108;-62
2022/09/16 00:47:50;;;;;;;2.60;0.95;;;;;;;14.94;59.44;99095.41;5134336;27;20082;-63
2022/09/16 00:50:27;;;;;;;2.42;0.60;;;;;;;14.90;59.74;99097.50;5132962;27;20051;-62
2022/09/16 00:52:55;;;;;;;3.45;0.57;;;;;;;14.91;59.08;99098.34;5133030;27;20174;-61
2022/09/16 00:55:29;;;;;;;1.08;0.52;;;;;;;14.86;59.86;99106.69;5132614;27;20082;-61
2022/09/16 00:58:03;;;;;;;1.95;0.63;;;;;;;14.85;59.34;99105.00;5133964;27;20100;-62
2022/09/16 01:00:30;;;;;;;3.65;0.77;;;;;;;14.83;59.16;99099.84;5132707;27;20053;-62
2022/09/16 01:02:57;;;;;;;3.97;1.05;;;;;;;14.81;59.17;99098.28;5132821;27;20047;-63
2022/09/16 01:05:25;;;;;;;3.42;0.80;;;;;;;14.79;59.25;99093.13;5133793;27;20079;-61
2022/09/16 01:07:53;;;;;;;2.67;0.70;;;;;;;14.75;59.24;99098.78;5133978;27;20078;-62
2022/09/16 01:10:23;;;;;;;4.10;0.90;;;;;;;14.73;59.52;99093.63;5132272;27;20130;-60
2022/09/16 01:13:05;;;;;;;2.55;0.80;;;;;;;14.68;60.14;99096.66;5133515;27;20085;-61
2022/09/16 01:15:48;;;;;;;2.92;0.82;;;;;;;14.64;60.37;99087.28;5133624;27;20043;-62
2022/09/16 01:18:25;;;;;;;4.50;0.88;;;;;;;14.67;59.58;99089.69;5133544;27;20524;-61
2022/09/16 01:21:06;;;;;;;2.53;0.70;;;;;;;14.65;60.05;99088.97;5133291;27;20047;-61
2022/09/16 01:23:51;;;;;;;1.40;0.60;;;;;;;14.62;60.45;99081.31;5133595;27;20474;-62
2022/09/16 01:26:26;;;;;;;2.75;0.60;;;;;;;14.66;60.53;99098.59;5133402;27;20043;-62
2022/09/16 01:28:56;;;;;;;1.27;0.60;;;;;;;14.68;59.40;99094.00;5133158;27;20534;-62
2022/09/16 01:31:31;;;;;;;1.45;0.52;;;;;;;14.69;60.08;99094.84;5133109;27;20043;-61
2022/09/16 01:34:25;;;;;;;2.55;0.70;;;;;;;14.67;60.26;99092.34;5133623;27;20464;-62
2022/09/16 01:37:06;;;;;;;4.35;0.95;;;;;;;14.69;60.11;99092.22;5131844;27;20454;-62
2022/09/16 01:39:46;;;;;;;2.25;0.70;;;;;;;14.68;60.16;99094.00;5132841;27;20080;-60
2022/09/16 01:42:38;;;;;;;3.00;0.80;;;;;;;14.65;60.19;99088.97;5133256;27;20050;-61
2022/09/16 01:45:29;;;;;;;2.22;0.90;;;;;;;14.64;60.40;99095.25;5133106;27;20083;-62
2022/09/16 01:47:59;;;;;;;2.03;0.68;;;;;;;14.67;59.28;99087.03;5133382;27;20051;-61
2022/09/16 01:50:43;;;;;;;2.15;0.80;;;;;;;14.61;60.23;99087.53;5131460;27;20443;-61
2022/09/16 01:53:18;;;;;;;2.30;0.80;;;;;;;14.62;60.24;99086.59;5131710;27;20089;-64
2022/09/16 01:55:56;;;;;;;3.15;0.80;;;;;;;14.61;60.26;99084.91;5131542;27;20100;-62
2022/09/16 01:58:32;;;;;;;3.55;0.77;;;;;;;14.63;60.30;99085.63;5132491;27;20135;-62
2022/09/16 02:01:08;;;;;;;2.70;0.65;;;;;;;14.62;60.24;99085.75;5132735;27;20051;-62
2022/09/16 02:03:39;;;;;;;2.58;1.10;;;;;;;14.64;60.07;99091.75;5132858;27;20099;-62
2022/09/16 02:06:09;;;;;;;2.42;0.70;;;;;;;14.64;60.53;99086.44;5132701;27;20056;-62
2022/09/16 02:08:48;;;;;;;2.30;0.60;;;;;;;14.62;60.95;99085.75;5131735;27;20075;-62
2022/09/16 02:11:17;;;;;;;3.97;0.65;;;;;;;14.64;60.39;99086.44;5131218;27;20675;-61
2022/09/16 02:14:07;;;;;;;3.45;0.77;;;;;;;14.61;60.95;99092.03;5131017;27;20051;-61
2022/09/16 02:16:40;;;;;;;2.10;0.70;;;;;;;14.64;60.88;99089.94;5132406;27;20059;-62
2022/09/16 02:19:10;;;;;;;;;;;;;;;14.64;60.63;99082.00;5131217;27;20085;-62
2022/09/16 02:21:39;;;;;;;3.10;0.60;;;;;;;14.69;59.99;99090.38;5165267;27;20406;-64
2022/09/16 02:24:16;;;;;;;4.18;0.85;;;;;;;14.68;60.58;99082.56;5131178;27;20047;-63
2022/09/16 02:26:51;;;;;;;3.05;0.75;;;;;;;14.66;61.07;99093.28;5132147;27;20095;-63
2022/09/16 02:29:27;;;;;;;1.25;0.52;;;;;;;14.66;61.02;99085.34;5130797;27;20096;-61
2022/09/16 02:32:00;;;;;;;2.00;0.80;;;;;;;14.67;60.92;99081.75;5132116;27;20103;-61
2022/09/16 02:34:31;;;;;;;1.77;0.60;;;;;;;14.66;60.97;99085.34;5130818;27;20446;-62
2022/09/16 02:37:07;;;;;;;2.13;0.70;;;;;;;14.67;60.91;99087.03;5132097;27;20058;-61
2022/09/16 02:39:38;;;;;;;2.67;0.60;;;;;;;14.67;60.65;99072.94;5132001;27;20138;-61
2022/09/16 02:42:05;;;;;;;1.77;0.70;;;;;;;14.67;60.43;99075.59;5132004;27;20079;-61
2022/09/16 02:44:33;;;;;;;4.18;0.75;;;;;;;14.65;60.52;99078.38;5130405;27;20047;-61
2022/09/16 02:47:16;;;;;;;1.88;0.63;;;;;;;14.63;61.06;99075.03;5132222;27;20043;-62
2022/09/16 02:49:53;;;;;;;2.65;0.70;;;;;;;14.63;61.02;99082.13;5131493;27;20051;-61
2022/09/16 02:52:38;;;;;;;2.50;1.10;;;;;;;14.63;61.03;99085.63;5131752;27;20087;-61
2022/09/16 02:55:19;;;;;;;2.33;0.73;;;;;;;14.64;60.75;99082.00;5131943;27;20047;-62
2022/09/16 02:57:46;;;;;;;3.40;1.17;;;;;;;14.66;60.16;99082.69;5131781;27;20155;-62
2022/09/16 03:00:12;;;;;;;1.55;0.63;;;;;;;14.65;60.22;99088.97;5131397;27;20051;-62
2022/09/16 03:02:40;;;;;;;2.65;0.93;;;;;;;14.63;60.42;99082.97;5131677;27;20162;-63
2022/09/16 03:05:08;;;;;;;2.42;0.50;;;;;;;14.62;60.46;99089.25;5131374;27;20470;-63
2022/09/16 03:07:36;;;;;;;2.88;0.93;;;;;;;14.61;60.67;99084.91;5131880;27;20134;-62
2022/09/16 03:10:03;;;;;;;1.95;0.60;;;;;;;14.59;60.46;99079.72;5131449;27;20559;-63
2022/09/16 03:12:42;;;;;;;1.20;0.68;;;;;;;14.58;61.06;99079.88;5131606;27;20130;-64
2022/09/16 03:15:24;;;;;;;1.50;0.60;;;;;;;14.56;61.38;99080.00;5131363;27;20043;-62
2022/09/16 03:18:00;;;;;;;1.87;0.73;;;;;;;14.56;61.19;99073.84;5131541;27;20577;-62
2022/09/16 03:20:32;;;;;;;2.25;0.65;;;;;;;14.55;61.18;99086.25;5132350;27;20506;-61
2022/09/16 03:23:36;;;;;;;2.40;0.57;;;;;;;14.52;61.28;99080.38;5136296;27;20092;-62
2022/09/16 03:26:22;;;;;;;;;;;;;;;14.53;60.59;99085.56;5137338;27;20144;-62
2022/09/16 03:28:57;;;;;;;3.67;0.57;;;;;;;14.52;60.77;99081.22;5134364;27;20321;-61
2022/09/16 03:31:36;;;;;;;3.45;0.75;;;;;;;14.51;60.43;99079.56;5134412;27;20055;-62
2022/09/16 03:34:02;;;;;;;1.88;0.60;;;;;;;14.48;60.16;99079.81;5135839;27;20043;-62
2022/09/16 03:36:34;;;;;;;2.35;0.70;;;;;;;14.43;60.72;99080.19;5135317;27;20051;-62
2022/09/16 03:39:02;;;;;;;2.25;0.70;;;;;;;14.41;60.66;99079.50;5135501;27;20139;-61
2022/09/16 03:41:31;;;;;;;2.40;0.60;;;;;;;14.38;60.71;99063.84;5134275;27;20134;-62
2022/09/16 03:43:59;;;;;;;2.90;0.70;;;;;;;14.36;60.82;99068.47;5134051;27;20047;-63
2022/09/16 03:46:30;;;;;;;1.90;0.68;;;;;;;14.34;60.74;99065.09;5134082;27;20051;-62
2022/09/16 03:48:57;;;;;;;0.60;0.60;;;;;;;14.32;60.81;99059.91;5134938;27;20410;-65
2022/09/16 03:51:24;;;;;;;1.50;0.60;;;;;;;14.32;60.93;99059.09;5135265;27;20083;-62
2022/09/16 03:53:52;;;;;;;1.75;0.80;;;;;;;14.30;61.07;99059.22;5135142;27;20510;-61
2022/09/16 03:56:21;;;;;;;2.28;0.77;;;;;;;14.30;61.18;99067.16;5133816;27;20043;-62
2022/09/16 03:58:47;;;;;;;1.73;0.60;;;;;;;14.29;61.30;99068.13;5133852;27;20102;-62
2022/09/16 04:01:14;;;;;;;2.33;0.90;;;;;;;14.30;61.23;99076.91;5134830;27;20079;-61
2022/09/16 04:03:41;;;;;;;3.22;0.80;;;;;;;14.28;61.38;99073.56;5134971;27;20590;-64
2022/09/16 04:06:08;;;;;;;2.30;0.93;;;;;;;14.27;61.19;99074.50;5134963;27;20070;-62
2022/09/16 04:08:35;;;;;;;2.95;1.00;;;;;;;14.26;61.28;99078.97;5134583;27;20092;-61
2022/09/16 04:11:06;;;;;;;3.05;1.10;;;;;;;14.25;61.53;99079.09;5134578;27;20055;-61
2022/09/16 04:13:34;;;;;;;5.28;1.00;;;;;;;14.22;61.46;99072.25;5134865;27;20144;-62
2022/09/16 04:16:02;;;;;;;5.53;1.63;;;;;;;14.20;61.58;99079.47;5134529;27;20089;-62
2022/09/16 04:18:30;;;;;;;1.63;1.05;;;;;;;14.18;61.51;99070.81;5134666;27;20479;-62
2022/09/16 04:20:58;;;;;;;2.42;1.25;;;;;;;14.15;61.67;99069.28;5134985;27;20134;-63
2022/09/16 04:23:26;;;;;;;4.38;1.30;;;;;;;14.13;61.63;99065.91;5133275;27;20051;-61
2022/09/16 04:25:57;;;;;;;4.30;1.40;;;;;;;14.11;61.88;99062.56;5133187;27;20082;-61
2022/09/16 04:28:24;;;;;;;3.03;1.48;;;;;;;14.08;61.93;99062.81;5134212;27;20263;-61
2022/09/16 04:30:51;;;;;;;2.72;1.38;;;;;;;14.07;62.00;99058.50;5134155;27;20051;-60
2022/09/16 04:33:17;;;;;;;4.75;1.60;;;;;;;14.05;62.08;99066.56;5134281;27;20055;-61
2022/09/16 04:35:44;;;;;;;3.03;1.55;;;;;;;14.04;62.58;99064.03;5134196;27;20137;-61
2022/09/16 04:38:11;;;;;;;1.75;1.48;;;;;;;14.04;62.32;99070.16;5134133;27;20074;-61
2022/09/16 04:40:40;;;;;;;3.05;1.50;;;;;;;14.05;62.42;99057.75;5134287;27;20117;-62
2022/09/16 04:43:06;;;;;;;1.95;1.50;;;;;;;14.05;62.58;99063.06;5134029;27;20395;-61
2022/09/16 04:45:33;;;;;;;3.85;1.90;;;;;;;14.05;62.36;99060.41;5134366;27;20130;-66
2022/09/16 04:48:00;;;;;;;2.05;1.70;;;;;;;14.04;62.13;99061.38;5133810;27;20502;-63
2022/09/16 04:50:26;;;;;;;4.78;1.60;;;;;;;14.01;62.33;99054.53;5134110;27;20051;-62
2022/09/16 04:52:53;;;;;;;3.55;1.40;;;;;;;14.01;62.42;99058.97;5133856;27;20491;-62
2022/09/16 04:55:23;;;;;;;7.25;2.00;;;;;;;13.99;62.50;99066.22;5133883;27;20525;-62
2022/09/16 04:57:50;;;;;;;6.85;1.67;;;;;;;13.97;62.53;99063.69;5133826;27;20134;-62
2022/09/16 05:00:17;;;;;;;5.25;1.77;;;;;;;13.94;62.60;99067.44;5133735;27;20475;-61
2022/09/16 05:02:44;;;;;;;4.68;1.55;;;;;;;13.93;62.80;99064.91;5132768;27;20158;-62
2022/09/16 05:05:12;;;;;;;4.32;1.85;;;;;;;13.92;62.93;99068.53;5133763;27;20047;-61
2022/09/16 05:07:38;;;;;;;2.85;1.67;;;;;;;13.92;63.15;99072.03;5133682;27;20104;-63
2022/09/16 05:10:05;;;;;;;3.95;1.60;;;;;;;13.93;63.26;99079.00;5133248;27;20073;-61
2022/09/16 05:12:32;;;;;;;7.18;1.90;;;;;;;13.95;63.39;99076.22;5133905;27;20094;-61
2022/09/16 05:14:58;;;;;;;4.47;1.73;;;;;;;13.97;63.44;99076.09;5133676;27;20078;-62
2022/09/16 05:17:25;;;;;;;2.83;1.40;;;;;;;13.98;63.48;99069.84;5133460;27;20470;-61
2022/09/16 05:20:11;;;;;;;2.88;1.35;;;;;;;14.01;63.44;99074.84;5133588;27;20055;-60
2022/09/16 05:22:38;;;;;;;3.70;1.55;;;;;;;14.03;63.35;99073.78;5133494;27;20107;-60
2022/09/16 05:25:05;;;;;;;4.75;1.48;;;;;;;14.04;63.14;99070.16;5133387;27;20651;-64
2022/09/16 05:27:32;;;;;;;2.03;1.50;;;;;;;14.05;63.02;99060.41;5133768;27;20146;-61
2022/09/16 05:29:59;;;;;;;4.63;1.58;;;;;;;14.06;63.04;99064.75;5131964;27;20074;-61
2022/09/16 05:32:26;;;;;;;3.10;1.50;;;;;;;14.05;62.82;99061.25;5133476;27;20047;-61
2022/09/16 05:34:53;;;;;;;5.75;1.83;;;;;;;14.04;62.88;99069.31;5133254;27;20103;-65
2022/09/16 05:37:20;;;;;;;2.60;1.02;;;;;;;14.03;62.70;99070.28;5132918;27;20039;-60
2022/09/16 05:39:46;;;;;;;3.28;1.65;;;;;;;14.02;62.82;99068.63;5132695;27;20071;-61
2022/09/16 05:42:13;;;;;;;4.75;1.48;;;;;;;14.00;62.69;99067.88;5133726;27;20406;-61
2022/09/16 05:44:40;;;;;;;3.35;1.55;;;;;;;13.97;62.82;99061.03;5132513;27;20475;-61
2022/09/16 05:47:06;;;;;;;5.22;1.70;;;;;;;13.96;62.66;99066.47;5133147;27;20130;-61
2022/09/16 05:49:33;;;;;;;4.63;1.40;;;;;;;13.93;62.76;99055.19;5132783;27;20704;-62
2022/09/16 05:51:59;;;;;;;4.10;1.40;;;;;;;13.91;62.69;99065.03;5132943;27;20459;-62
2022/09/16 05:54:26;;;;;;;4.55;1.80;;;;;;;13.89;62.91;99060.84;5133067;27;20086;-62
2022/09/16 05:56:55;;;;;;;3.78;1.40;;;;;;;13.85;63.28;99062.91;5132815;27;20039;-61
2022/09/16 05:59:22;;;;;;;5.53;1.33;;;;;;;13.85;63.07;99075.28;5132333;27;20089;-61
2022/09/16 06:01:49;;;;;;;5.32;1.60;;;;;;;13.82;63.00;99063.16;5132902;27;20178;-63
2022/09/16 06:04:16;;;;;;;4.55;1.35;;;;;;;13.81;63.01;99069.41;5132679;27;20039;-60
2022/09/16 06:06:45;;;;;;;4.30;1.00;;;;;;;13.79;63.39;99069.53;5132473;27;20078;-60
2022/09/16 06:09:18;;;;;;;2.53;1.30;;;;;;;13.78;63.89;99061.72;5131789;27;20079;-66
2022/09/16 06:11:49;;;;;;;7.47;2.67;;;;;;;13.78;63.51;99070.50;5132544;27;20558;-60
2022/09/16 06:14:17;;;;;;;3.20;0.90;;;;;;;13.78;63.47;99065.22;5132830;27;20142;-62
2022/09/16 06:16:45;;;;;;;5.22;1.42;;;;;;;13.80;63.49;99067.75;5132281;27;20047;-61
2022/09/16 06:19:16;;;;;;;2.78;1.00;;;;;;;13.79;64.11;99069.53;5131244;27;20103;-60
2022/09/16 06:21:43;;;;;;;3.70;1.25;;;;;;;13.81;63.39;99067.63;5131236;27;20081;-60
2022/09/16 06:24:11;;;;;;;4.28;1.23;;;;;;;13.84;63.37;99074.47;5132333;27;20047;-62
2022/09/16 06:26:41;;;;;;;4.78;1.20;;;;;;;13.84;63.62;99071.81;5132325;27;20138;-60
2022/09/16 06:29:08;;;;;;;1.88;1.02;;;;;;;13.87;63.43;99076.84;5130830;27;20047;-60
2022/09/16 06:31:36;;;;;;;2.38;0.80;;;;;;;13.87;63.40;99068.06;5131090;27;20047;-60
2022/09/16 06:34:04;;;;;;;2.45;0.90;;;;;;;13.88;63.38;99070.59;5132395;27;20078;-62
2022/09/16 06:36:35;;;;;;;2.25;0.90;;;;;;;13.90;63.69;99067.81;5131355;27;20067;-61
2022/09/16 06:39:05;;;;;;;3.17;0.90;;;;;;;13.92;63.38;99064.09;5131029;27;20432;-60
2022/09/16 06:41:33;;;;;;;3.88;1.00;;;;;;;13.93;63.36;99067.56;5130930;27;20135;-62
2022/09/16 06:43:59;;;;;;;3.22;1.17;;;;;;;13.95;63.37;99065.66;5130869;27;20070;-60
2022/09/16 06:46:27;;;;;;;2.28;0.88;;;;;;;13.96;63.42;99059.38;5131046;27;20078;-62
2022/09/16 06:48:56;;;;;;;3.20;1.20;;;;;;;13.98;63.51;99059.25;5129686;27;20054;-65
2022/09/16 06:51:30;;;;;;;3.95;1.00;;;;;;;13.99;63.33;99064.44;5130371;27;20054;-60
2022/09/16 06:54:02;;;;;;;3.78;1.33;;;;;;;13.99;63.93;99061.78;5130590;27;20494;-62
2022/09/16 06:56:29;;;;;;;3.42;1.20;;;;;;;14.03;63.16;99055.25;5130329;27;20483;-59
2022/09/16 06:58:56;;;;;;;2.28;0.70;;;;;;;14.05;63.48;99061.25;5130617;27;20130;-60
2022/09/16 07:01:28;;;;;;;3.05;0.88;;;;;;;14.05;63.93;99065.69;5130586;27;20043;-61
2022/09/16 07:03:57;;;;;;;2.88;0.90;;;;;;;14.09;63.48;99061.00;5131857;27;20039;-61
2022/09/16 07:06:26;;;;;;;2.42;0.90;;;;;;;14.10;63.26;99058.25;5131632;27;20051;-60
2022/09/16 07:09:13;;;;;;;1.55;0.60;;;;;;;14.14;63.46;99067.59;5131885;27;20421;-61
2022/09/16 07:11:39;;;;;;;3.72;0.65;;;;;;;14.17;63.45;99069.97;5130457;27;20133;-60
2022/09/16 07:14:08;;;;;;;2.80;0.93;;;;;;;14.21;63.89;99065.28;5131668;27;20549;-60
2022/09/16 07:16:34;;;;;;;6.40;1.48;;;;;;;14.27;63.86;99070.06;5131766;27;20463;-60
2022/09/16 07:19:01;;;;;;;6.55;1.42;;;;;;;14.32;64.01;99070.50;5131599;27;20560;-61
2022/09/16 07:21:29;;;;;;;4.50;0.77;;;;;;;14.41;63.88;99076.84;5131558;28;20054;-60
2022/09/16 07:24:00;;;;;;;4.53;0.82;;;;;;;14.45;63.91;99075.63;5131866;27;20149;-60
2022/09/16 07:26:32;;;;;;;5.00;1.08;;;;;;;14.54;63.80;99075.81;5131494;27;20089;-62
2022/09/16 07:29:01;;;;;;;3.47;0.90;;;;;;;14.61;63.58;99082.25;5131348;27;20451;-62
2022/09/16 07:31:30;;;;;;;4.90;1.10;;;;;;;14.67;63.19;99079.09;5131364;27;20560;-60
2022/09/16 07:34:00;;;;;;;4.72;0.70;;;;;;;14.72;62.96;99073.38;5131289;27;20100;-60
2022/09/16 07:36:41;;;;;;;3.95;0.70;;;;;;;14.74;63.00;99084.69;5131379;27;20043;-60
2022/09/16 07:39:09;;;;;;;2.70;0.80;;;;;;;14.82;62.65;99084.06;5130134;28;20075;-59
2022/09/16 07:41:39;;;;;;;3.78;1.00;;;;;;;14.85;62.51;99089.13;5131400;27;20043;-62
2022/09/16 07:44:08;;;;;;;4.65;0.95;;;;;;;14.90;62.34;99094.00;5131565;27;20085;-60
2022/09/16 07:46:35;;;;;;;1.67;0.73;;;;;;;14.91;62.14;99083.28;5131447;27;20481;-60
2022/09/16 07:49:04;;;;;;;4.13;1.10;;;;;;;14.95;61.97;99089.16;5131014;27;20458;-61
2022/09/16 07:51:31;;;;;;;4.55;1.00;;;;;;;14.97;62.01;99092.50;5131504;27;20043;-59
2022/09/16 07:54:04;;;;;;;4.15;1.00;;;;;;;14.97;62.42;99096.00;5131306;27;20096;-59
2022/09/16 07:56:35;;;;;;;4.95;0.90;;;;;;;15.03;61.99;99091.16;5131226;27;20095;-60
2022/09/16 07:59:03;;;;;;;3.65;1.13;;;;;;;15.08;61.70;99094.22;5130921;27;20130;-62
2022/09/16 08:01:30;;;;;;;4.57;0.95;;;;;;;15.11;61.51;99096.63;5131101;28;20563;-61
2022/09/16 08:03:58;;;;;;;6.28;1.05;;;;;;;15.15;61.36;99102.50;5131022;27;20433;-59
2022/09/16 08:06:27;;;;;;;4.50;1.00;;;;;;;15.19;61.71;99095.94;5130808;27;20043;-60
2022/09/16 08:08:56;;;;;;;5.95;1.00;;;;;;;15.23;61.39;99103.50;5134737;27;20086;-62
2022/09/16 08:11:35;;;;;;;4.60;1.60;;;;;;;15.31;61.15;99094.03;5135009;27;20053;-61
2022/09/16 08:14:02;;;;;;;6.03;1.42;;;;;;;15.35;60.66;99106.03;5135000;27;20066;-60
2022/09/16 08:16:29;;;;;;;5.32;1.30;;;;;;;15.40;60.30;99097.69;5135213;27;20078;-62
2022/09/16 08:18:57;;;;;;;5.15;1.15;;;;;;;15.43;60.18;99100.91;5134638;27;20561;-60
2022/09/16 08:21:28;;;;;;;6.22;1.15;;;;;;;15.49;59.66;99103.03;5133498;27;20071;-60
2022/09/16 08:23:55;;;;;;;7.93;1.25;;;;;;;15.56;60.01;99100.69;5134542;27;20623;-61
2022/09/16 08:26:23;;;;;;;5.00;1.02;;;;;;;15.62;60.20;99097.47;5135050;27;20039;-61
2022/09/16 08:28:49;;;;;;;2.95;0.80;;;;;;;15.71;59.95;99101.13;5133202;27;20547;-60
2022/09/16 08:31:35;;;;;;;7.05;1.45;;;;;;;15.82;59.77;99107.28;5134697;27;20564;-60
2022/09/16 08:34:02;;;;;;;5.05;1.00;;;;;;;15.92;59.56;99096.69;5134463;27;20078;-61
2022/09/16 08:36:28;;;;;;;9.38;2.08;;;;;;;16.01;59.19;99099.34;5134269;27;20337;-60
2022/09/16 08:38:56;;;;;;;7.20;1.42;;;;;;;16.12;59.13;99100.22;5134301;27;20046;-60
2022/09/16 08:41:53;;;;;;;5.25;1.40;;;;;;;16.20;58.83;99105.66;5133210;27;20078;-60
2022/09/16 08:44:32;;;;;;;5.55;1.05;;;;;;;16.34;58.64;99101.72;5134296;27;20088;-59
2022/09/16 08:47:08;;;;;;;3.78;1.00;;;;;;;16.45;58.43;99106.03;5133081;27;20071;-60
2022/09/16 08:49:39;;;;;;;6.25;1.40;;;;;;;16.53;57.96;99106.16;5134282;27;20082;-60
2022/09/16 08:52:23;;;;;;;4.38;1.00;;;;;;;16.62;57.13;99108.94;5134576;27;20429;-60
2022/09/16 08:54:55;;;;;;;6.40;1.13;;;;;;;16.70;56.78;99105.59;5134108;27;20070;-60
2022/09/16 08:57:25;;;;;;;3.65;1.33;;;;;;;16.74;56.85;99102.50;5134225;27;20051;-62
2022/09/16 08:59:58;;;;;;;6.57;1.63;;;;;;;16.78;56.73;99109.19;5134112;27;20047;-60
2022/09/16 09:02:37;;;;;;;5.60;1.33;;;;;;;16.80;56.04;99101.94;5134178;27;20075;-60
2022/09/16 09:05:22;;;;;;;5.45;1.40;;;;;;;16.84;55.50;99105.13;5133965;27;20058;-60
2022/09/16 09:08:10;;;;;;;6.88;1.13;;;;;;;16.87;55.80;99099.53;5133942;27;20142;-61
2022/09/16 09:10:44;;;;;;;4.45;1.17;;;;;;;16.93;55.86;99092.78;5133760;27;20050;-60
2022/09/16 09:13:52;;;;;;;8.00;1.50;;;;;;;16.95;54.84;99101.47;5133909;27;20074;-60
2022/09/16 09:16:31;;;;;;;3.58;1.20;;;;;;;17.00;54.46;99099.19;5133724;27;20158;-61
2022/09/16 09:19:16;;;;;;;6.72;1.10;;;;;;;17.08;55.78;99105.66;5132275;27;20083;-63
2022/09/16 09:22:12;;;;;;;6.45;1.02;;;;;;;17.10;55.46;99104.53;5134015;27;20386;-60
2022/09/16 09:25:03;;;;;;;4.15;1.23;;;;;;;17.19;55.09;99108.09;5132370;27;20078;-61
2022/09/16 09:27:42;;;;;;;7.82;1.70;;;;;;;17.30;55.22;99112.41;5133487;27;20131;-62
2022/09/16 09:30:18;;;;;;;4.53;1.23;;;;;;;17.37;53.85;99096.69;5132029;27;20065;-61
2022/09/16 09:33:19;;;;;;;5.65;1.40;;;;;;;17.43;53.82;99088.13;5133336;27;20126;-61
2022/09/16 09:36:33;;;;;;;3.90;1.05;;;;;;;17.52;54.28;99089.91;5133594;27;20390;-61
2022/09/16 09:39:11;;;;;;;6.03;1.27;;;;;;;17.62;54.15;99092.50;5133026;27;20047;-63
2022/09/16 09:42:16;;;;;;;7.72;1.58;;;;;;;17.68;53.27;99091.88;5132206;27;20046;-60
2022/09/16 09:44:54;;;;;;;5.65;1.27;;;;;;;17.80;53.26;99100.50;5069631;28;20052;-61
2022/09/16 09:47:31;;;;;;;5.28;1.27;;;;;;;17.90;52.83;99091.63;5127626;27;20051;-61
2022/09/16 09:50:11;;;;;;;5.53;1.20;;;;;;;17.95;52.02;99092.00;5133088;27;20100;-61
2022/09/16 09:52:49;;;;;;;11.30;1.40;;;;;;;17.98;51.60;99095.19;5132913;27;20039;-61
2022/09/16 09:55:19;;;;;;;9.63;1.25;;;;;;;18.02;51.67;99087.72;5131789;27;20486;-61
2022/09/16 09:58:04;;;;;;;5.28;1.50;;;;;;;18.01;51.66;99091.38;5132665;27;20047;-61
2022/09/16 10:00:31;;;;;;;4.35;1.17;;;;;;;18.10;52.05;99095.00;5131698;27;20051;-63
2022/09/16 10:03:05;;;;;;;6.07;1.30;;;;;;;18.12;50.94;99089.53;5132881;27;20047;-61
2022/09/16 10:05:33;;;;;;;6.30;1.17;;;;;;;18.18;51.86;99089.75;5133207;27;20043;-61
2022/09/16 10:08:15;;;;;;;4.20;1.10;;;;;;;18.19;51.31;99083.41;5132516;27;20130;-61
2022/09/16 10:11:02;;;;;;;5.20;1.02;;;;;;;18.29;51.76;99080.66;5131595;27;20074;-60
2022/09/16 10:13:29;;;;;;;4.65;1.23;;;;;;;18.44;51.69;99085.44;5132477;27;20134;-63
2022/09/16 10:16:10;;;;;;;4.72;0.98;;;;;;;18.47;51.16;99085.13;5132612;27;20043;-61
2022/09/16 10:18:38;;;;;;;4.15;0.95;;;;;;;18.57;51.47;99085.84;5132187;27;20561;-61
2022/09/16 10:21:09;;;;;;;6.65;1.30;;;;;;;18.62;50.28;99086.22;5132770;27;20212;-61
2022/09/16 10:23:37;;;;;;;6.00;1.20;;;;;;;18.68;50.49;99086.56;5131044;27;20082;-61
2022/09/16 10:26:21;;;;;;;4.22;1.17;;;;;;;18.67;48.92;99067.09;5132492;27;20043;-61
2022/09/16 10:29:15;;;;;;;2.63;0.75;;;;;;;18.74;49.45;99056.63;5131039;27;20363;-62
2022/09/16 10:31:42;;;;;;;4.18;1.27;;;;;;;18.88;50.36;99055.22;5162653;27;20079;-61
2022/09/16 10:34:35;;;;;;;8.07;1.30;;;;;;;18.96;49.64;99054.41;5130801;27;20043;-61
2022/09/16 10:37:07;;;;;;;4.47;1.00;;;;;;;19.10;49.61;99048.50;5125033;27;20074;-61
2022/09/16 10:39:34;;;;;;;6.60;1.27;;;;;;;19.23;50.15;99048.06;5131875;27;20166;-61
2022/09/16 10:42:02;;;;;;;8.52;1.00;;;;;;;19.33;50.04;99045.25;5132039;27;20070;-60
2022/09/16 10:44:32;;;;;;;7.68;1.60;;;;;;;19.42;49.35;99045.25;5130904;27;20047;-61
2022/09/16 10:47:14;;;;;;;6.13;1.08;;;;;;;19.53;49.03;99043.16;5132158;27;20090;-62
2022/09/16 10:49:48;;;;;;;4.47;1.10;;;;;;;19.69;48.11;99046.00;5131701;27;20129;-60
2022/09/16 10:52:21;;;;;;;7.00;1.60;;;;;;;19.88;48.42;99037.66;5130979;27;20049;-61
2022/09/16 10:54:49;;;;;;;4.25;0.98;;;;;;;20.07;48.57;99043.72;5130825;27;20046;-62
2022/09/16 10:57:30;;;;;;;6.70;1.42;;;;;;;20.15;46.96;99062.41;5132060;27;20039;-60
2022/09/16 11:00:00;;;;;;;5.28;1.38;;;;;;;20.17;47.22;99113.88;5131761;27;20123;-61
2022/09/16 11:02:54;;;;;;;4.55;0.90;;;;;;;19.98;46.50;99127.50;5130619;27;20138;-61
2022/09/16 11:05:32;;;;;;;6.45;0.85;;;;;;;19.70;46.78;99135.78;5132021;27;20078;-61
2022/09/16 11:08:13;;;;;;;2.58;0.77;;;;;;;19.34;47.20;99092.28;5131845;27;20162;-62
2022/09/16 11:11:07;;;;;;;3.42;0.65;;;;;;;18.94;48.07;99085.72;5130739;27;20116;-61
2022/09/16 11:13:56;;;;;;;3.28;1.25;;;;;;;18.56;48.69;99092.19;5131933;27;20128;-61
2022/09/16 11:17:10;;;;;;;3.55;0.77;;;;;;;18.20;51.52;99084.22;5131691;27;20126;-62
2022/09/16 11:20:23;;;;;;;2.50;0.60;;;;;;;18.27;54.64;99077.31;5126085;27;20519;-62
2022/09/16 11:23:07;;;;;;;4.10;1.13;;;;;;;18.75;56.54;99079.63;5131788;28;20337;-63
2022/09/16 11:25:50;;;;;;;1.95;0.57;;;;;;;19.46;56.55;99076.81;5131580;27;20035;-61
2022/09/16 11:28:38;;;;;;;3.47;0.90;;;;;;;20.29;55.86;99073.44;5130338;27;20051;-61
2022/09/16 11:31:42;;;;;;;2.95;0.90;;;;;;;21.16;55.06;99077.28;5131302;28;20113;-63
2022/09/16 11:34:27;;;;;;;3.83;1.05;;;;;;;22.06;55.48;99081.50;5131555;28;20436;-62
2022/09/16 11:37:18;;;;;;;4.50;1.17;;;;;;;22.92;52.25;99080.38;5131543;27;20042;-61
2022/09/16 11:39:53;;;;;;;2.35;0.82;;;;;;;23.68;50.30;99081.97;5131201;27;20043;-61
2022/09/16 11:42:25;;;;;;;4.93;1.10;;;;;;;24.32;50.81;99070.56;5134283;27;20054;-62
2022/09/16 11:45:23;;;;;;;3.75;1.45;;;;;;;24.90;48.39;99069.56;5134354;27;20078;-61
2022/09/16 11:48:15;;;;;;;4.10;1.00;;;;;;;25.45;45.09;99076.84;5134477;27;20398;-61
2022/09/16 11:50:56;;;;;;;4.03;1.20;;;;;;;25.91;44.27;99073.66;5135578;27;20484;-62
2022/09/16 11:53:44;;;;;;;2.80;0.80;;;;;;;26.28;44.69;99060.66;5135513;27;20063;-61
2022/09/16 11:56:18;;;;;;;3.25;0.88;;;;;;;26.71;43.11;99061.19;5134025;27;20043;-62
2022/09/16 11:58:57;;;;;;;3.60;0.80;;;;;;;27.04;42.64;99060.31;5135049;27;20126;-61
2022/09/16 12:01:30;;;;;;;1.58;0.80;;;;;;;27.37;40.97;99048.56;5135423;27;20081;-62
2022/09/16 12:04:26;;;;;;;3.15;0.90;;;;;;;27.64;42.43;99042.19;5135420;27;20124;-63